Time;durP1;ratioP1;P1;durP2;ratioP2;P2;SDS_P1;SDS_P2;PMS_P1;PMS_P2;Temp;Humidity;BMP_temperature;BMP_pressure;BME280_temperature;BME280_humidity;BME280_pressure;Samples;Min_cycle;Max_cycle;Signal;HPM_P1;HPM_P2
2023/01/03 00:00:41;;;;;;;;;;;13.50;64.10;;;;;;5028232;28;20299;-88
2023/01/03 00:03:06;;;;;;;;;;;13.60;64.20;;;;;;5027551;28;19921;-90
2023/01/03 00:05:35;;;;;;;;;;;13.60;64.30;;;;;;5034316;28;19917;-89
2023/01/03 00:08:03;;;;;;;;;;;13.70;64.40;;;;;;5034111;28;19952;-88
2023/01/03 00:10:28;;;;;;;;;;;13.80;64.30;;;;;;5041395;28;19963;-90
2023/01/03 00:12:55;;;;;;;;;;;13.80;64.30;;;;;;5023755;28;19917;-89
2023/01/03 00:15:20;;;;;;;;;;;13.80;64.10;;;;;;5027080;28;20016;-89
2023/01/03 00:17:46;;;;;;;;;;;13.80;63.80;;;;;;5027789;28;20020;-90
2023/01/03 00:20:12;;;;;;;;;;;13.70;63.40;;;;;;5025911;28;19917;-89
2023/01/03 00:22:38;;;;;;;;;;;13.60;63.00;;;;;;5038618;28;19944;-91
2023/01/03 00:25:03;;;;;;;;;;;13.40;62.70;;;;;;5013295;28;20459;-91
2023/01/03 00:27:29;;;;;;;;;;;13.30;62.50;;;;;;5024929;28;20325;-89
2023/01/03 00:29:54;;;;;;;;;;;13.30;62.30;;;;;;5017786;28;19924;-91
2023/01/03 00:32:20;;;;;;;;;;;13.10;62.50;;;;;;5023564;28;19926;-88
2023/01/03 00:37:45;;;;;;;;;;;13.00;62.30;;;;;;5027409;28;19971;-88
2023/01/03 00:40:11;;;;;;;;;;;12.90;63.00;;;;;;5018906;28;19921;-90
2023/01/03 00:48:17;;;;;;;;;;;13.10;63.90;;;;;;5057588;23;19925;-90
2023/01/03 00:50:48;;;;;;;;;;;13.20;64.00;;;;;;5049166;28;20388;-90
2023/01/03 00:53:37;;;;;;;;;;;13.30;64.00;;;;;;5021825;28;19921;-89
2023/01/03 00:56:07;;;;;;;;;;;13.40;64.20;;;;;;5014313;23;20047;-88
2023/01/03 00:58:33;;;;;;;;;;;13.50;64.00;;;;;;5013049;28;20304;-90
2023/01/03 01:01:06;;;;;;;;;;;13.50;64.00;;;;;;5009643;28;19909;-89
2023/01/03 01:03:31;;;;;;;;;;;13.60;64.00;;;;;;5012039;28;19937;-89
2023/01/03 01:06:22;;;;;;;;;;;13.70;64.00;;;;;;5008828;28;19926;-89
2023/01/03 01:08:56;;;;;;;;;;;13.70;63.80;;;;;;5009501;28;19909;-90
2023/01/03 01:11:25;;;;;;;;;;;13.60;63.60;;;;;;5009423;28;19922;-88
2023/01/03 01:13:51;;;;;;;;;;;13.50;63.30;;;;;;5012223;28;19944;-89
2023/01/03 01:16:22;;;;;;;;;;;13.40;63.00;;;;;;5012487;28;20361;-88
2023/01/03 01:18:54;;;;;;;;;;;13.30;62.90;;;;;;5012611;28;20076;-91
2023/01/03 01:21:25;;;;;;;;;;;13.20;62.60;;;;;;5011874;28;20368;-88
2023/01/03 01:23:51;;;;;;;;;;;13.10;62.80;;;;;;5020218;28;19924;-89
2023/01/03 01:26:37;;;;;;;;;;;13.00;62.70;;;;;;5015303;28;20156;-89
2023/01/03 01:29:02;;;;;;;;;;;12.90;62.40;;;;;;5028735;28;19917;-91
2023/01/03 01:31:28;;;;;;;;;;;12.80;62.00;;;;;;5046994;28;19915;-90
2023/01/03 01:33:56;;;;;;;;;;;12.70;62.10;;;;;;5046609;28;19921;-91
2023/01/03 01:36:30;;;;;;;;;;;12.60;62.20;;;;;;5031162;28;19913;-88
2023/01/03 01:38:59;;;;;;;;;;;12.50;61.90;;;;;;5029981;28;19929;-88
2023/01/03 01:44:38;;;;;;;;;;;12.30;61.90;;;;;;5011948;28;20044;-90
2023/01/03 01:47:03;;;;;;;;;;;12.20;61.90;;;;;;5010467;28;19917;-89
2023/01/03 01:49:29;;;;;;;;;;;12.20;62.60;;;;;;5011203;28;19924;-88
2023/01/03 01:51:54;;;;;;;;;;;12.10;62.80;;;;;;5008328;28;19914;-90
2023/01/03 01:54:20;;;;;;;;;;;12.20;63.20;;;;;;5025269;28;20022;-90
2023/01/03 01:56:48;;;;;;;;;;;12.20;63.40;;;;;;5005585;28;19968;-89
2023/01/03 01:59:14;;;;;;;;;;;12.30;63.80;;;;;;5009365;28;20380;-88
2023/01/03 02:01:40;;;;;;;;;;;12.40;64.00;;;;;;5010364;28;20008;-89
2023/01/03 02:04:08;;;;;;;;;;;12.50;63.90;;;;;;5010255;28;19959;-90
2023/01/03 02:06:34;;;;;;;;;;;12.50;64.00;;;;;;5011013;28;20508;-88
2023/01/03 02:09:00;;;;;;;;;;;12.50;64.10;;;;;;5011200;28;20062;-89
2023/01/03 02:11:28;;;;;;;;;;;12.60;64.20;;;;;;5012029;28;19916;-90
2023/01/03 02:14:13;;;;;;;;;;;12.70;64.20;;;;;;5012815;28;19928;-90
2023/01/03 02:16:47;;;;;;;;;;;12.80;64.10;;;;;;5019961;28;19913;-89
2023/01/03 02:19:27;;;;;;;;;;;12.80;64.20;;;;;;5030928;28;19925;-87
2023/01/03 02:22:12;;;;;;;;;;;12.90;64.20;;;;;;5028539;28;19909;-90
2023/01/03 02:24:37;;;;;;;;;;;13.00;64.30;;;;;;5032834;28;19925;-90
2023/01/03 02:27:05;;;;;;;;;;;13.00;64.20;;;;;;5031491;28;19917;-88
2023/01/03 02:29:40;;;;;;;;;;;13.10;64.30;;;;;;5030572;28;19917;-88
2023/01/03 02:32:05;;;;;;;;;;;13.20;64.20;;;;;;5029925;28;19952;-89
2023/01/03 02:34:34;;;;;;;;;;;13.20;64.20;;;;;;5011622;28;19975;-90
2023/01/03 02:37:05;;;;;;;;;;;13.20;64.10;;;;;;5010886;28;19917;-89
2023/01/03 02:39:47;;;;;;;;;;;13.20;64.00;;;;;;5025932;28;20393;-89
2023/01/03 02:45:03;;;;;;;;;;;13.30;64.00;;;;;;5006643;28;19924;-90
2023/01/03 02:47:33;;;;;;;;;;;13.30;64.10;;;;;;5002233;28;19910;-90
2023/01/03 02:50:00;;;;;;;;;;;13.30;64.10;;;;;;5008964;28;19909;-90
2023/01/03 02:52:27;;;;;;;;;;;13.40;64.00;;;;;;5010857;28;20411;-90
2023/01/03 02:55:08;;;;;;;;;;;13.30;64.00;;;;;;5011282;28;20431;-91
2023/01/03 02:57:49;;;;;;;;;;;13.40;64.00;;;;;;5017917;28;19960;-89
2023/01/03 03:00:16;;;;;;;;;;;13.40;64.00;;;;;;5027627;28;19914;-89
2023/01/03 03:02:48;;;;;;;;;;;13.30;64.00;;;;;;5013842;28;20364;-90
2023/01/03 03:05:18;;;;;;;;;;;13.30;63.90;;;;;;5028571;28;19925;-91
2023/01/03 03:07:44;;;;;;;;;;;13.30;63.90;;;;;;5013580;28;19933;-87
2023/01/03 03:13:12;;;;;;;;;;;13.30;63.80;;;;;;5013892;28;19925;-88
2023/01/03 03:15:57;;;;;;;;;;;13.30;63.90;;;;;;5007829;28;19914;-89
2023/01/03 03:18:28;;;;;;;;;;;13.30;63.90;;;;;;5012451;28;20767;-89
2023/01/03 03:26:29;;;;;;;;;;;13.30;63.90;;;;;;5012975;28;19959;-90
2023/01/03 03:28:57;;;;;;;;;;;13.30;63.90;;;;;;5013032;28;19924;-88
2023/01/03 03:31:28;;;;;;;;;;;13.30;63.80;;;;;;5012208;28;19928;-89
2023/01/03 03:34:08;;;;;;;;;;;13.30;63.70;;;;;;5012938;28;20031;-88
2023/01/03 03:36:33;;;;;;;;;;;13.20;63.80;;;;;;5005324;28;19918;-88
2023/01/03 03:38:59;;;;;;;;;;;13.10;63.80;;;;;;5012358;28;19925;-89
2023/01/03 03:47:16;;;;;;;;;;;13.00;64.00;;;;;;5012955;28;19939;-89
2023/01/03 03:49:42;;;;;;;;;;;13.00;63.80;;;;;;5011652;28;19913;-88
2023/01/03 03:52:10;;;;;;;;;;;13.00;63.80;;;;;;5012991;28;19953;-88
2023/01/03 03:54:37;;;;;;;;;;;13.00;63.70;;;;;;5011641;28;19914;-89
2023/01/03 03:57:09;;;;;;;;;;;13.00;63.60;;;;;;5012525;28;20135;-90
2023/01/03 03:59:35;;;;;;;;;;;12.90;63.70;;;;;;5012024;28;19925;-89
2023/01/03 04:02:02;;;;;;;;;;;12.90;63.70;;;;;;5027630;28;20276;-87
2023/01/03 04:04:30;;;;;;;;;;;12.90;63.70;;;;;;5014609;28;19925;-89
2023/01/03 04:06:55;;;;;;;;;;;12.80;63.50;;;;;;5014793;28;19918;-88
2023/01/03 04:09:21;;;;;;;;;;;12.80;63.50;;;;;;5013154;28;20063;-89
2023/01/03 04:11:46;;;;;;;;;;;12.70;63.50;;;;;;5012838;28;19963;-89
2023/01/03 04:14:12;;;;;;;;;;;12.70;63.60;;;;;;5011715;28;20012;-89
2023/01/03 04:16:39;;;;;;;;;;;12.70;63.70;;;;;;5013196;28;20439;-88
2023/01/03 04:19:05;;;;;;;;;;;12.70;63.60;;;;;;5012958;28;19926;-89
2023/01/03 04:21:31;;;;;;;;;;;12.70;63.60;;;;;;5011059;28;19909;-89
2023/01/03 04:23:56;;;;;;;;;;;12.70;63.80;;;;;;5011289;28;19914;-91
2023/01/03 04:26:22;;;;;;;;;;;12.70;63.60;;;;;;5010832;28;19924;-89
2023/01/03 04:28:47;;;;;;;;;;;12.70;63.60;;;;;;5012585;28;20007;-88
2023/01/03 04:31:13;;;;;;;;;;;12.70;63.60;;;;;;5010440;28;19939;-89
2023/01/03 04:33:39;;;;;;;;;;;12.70;63.50;;;;;;5011029;28;20357;-89
2023/01/03 04:36:05;;;;;;;;;;;12.70;63.60;;;;;;5011238;28;19940;-89
2023/01/03 04:38:30;;;;;;;;;;;12.80;63.70;;;;;;5010999;28;19925;-88
2023/01/03 04:41:01;;;;;;;;;;;12.70;63.60;;;;;;5012911;28;19914;-90
2023/01/03 04:46:11;;;;;;;;;;;12.70;63.40;;;;;;5012568;28;19947;-89
2023/01/03 04:48:36;;;;;;;;;;;12.70;63.40;;;;;;5011230;28;19918;-90
2023/01/03 04:51:02;;;;;;;;;;;12.70;63.50;;;;;;5011776;28;19936;-88
2023/01/03 04:53:28;;;;;;;;;;;12.60;63.50;;;;;;5012460;28;19977;-89
2023/01/03 04:55:55;;;;;;;;;;;12.60;63.50;;;;;;5012644;28;19960;-89
2023/01/03 04:58:21;;;;;;;;;;;12.60;63.60;;;;;;5012272;28;19917;-90
2023/01/03 05:00:46;;;;;;;;;;;12.60;63.60;;;;;;5011764;28;19932;-89
2023/01/03 05:03:12;;;;;;;;;;;12.70;63.70;;;;;;5010185;28;19948;-90
2023/01/03 05:05:37;;;;;;;;;;;12.70;63.60;;;;;;5011528;28;19992;-88
2023/01/03 05:08:04;;;;;;;;;;;12.70;63.50;;;;;;5012453;28;19921;-89
2023/01/03 05:10:30;;;;;;;;;;;12.70;63.50;;;;;;5011147;28;19910;-89
2023/01/03 05:12:58;;;;;;;;;;;12.70;63.60;;;;;;5010818;28;19916;-89
2023/01/03 05:15:35;;;;;;;;;;;12.70;63.60;;;;;;5009936;28;20012;-88
2023/01/03 05:18:00;;;;;;;;;;;12.70;63.60;;;;;;5007012;28;20182;-89
2023/01/03 05:25:59;;;;;;;;;;;12.70;63.80;;;;;;5012798;28;19923;-89
2023/01/03 05:28:25;;;;;;;;;;;12.60;63.60;;;;;;5029401;28;19984;-89
2023/01/03 05:30:50;;;;;;;;;;;12.60;63.40;;;;;;5025401;28;19957;-88
2023/01/03 05:33:16;;;;;;;;;;;12.50;63.10;;;;;;5011465;28;19967;-88
2023/01/03 05:35:44;;;;;;;;;;;12.50;63.00;;;;;;5014432;28;20590;-90
2023/01/03 05:38:09;;;;;;;;;;;12.40;63.00;;;;;;5012215;28;19929;-89
2023/01/03 05:40:35;;;;;;;;;;;12.50;63.40;;;;;;5016818;28;19910;-89
2023/01/03 05:43:00;;;;;;;;;;;12.50;63.50;;;;;;5012012;28;19914;-90
2023/01/03 05:45:26;;;;;;;;;;;12.60;63.40;;;;;;5011151;28;20012;-90
2023/01/03 05:47:51;;;;;;;;;;;12.50;63.30;;;;;;5025932;28;19936;-89
2023/01/03 05:50:17;;;;;;;;;;;12.50;63.30;;;;;;5025980;28;19967;-89
2023/01/03 05:52:43;;;;;;;;;;;12.50;63.20;;;;;;5025847;28;19968;-88
2023/01/03 05:55:08;;;;;;;;;;;12.40;62.90;;;;;;5010619;28;19956;-89
2023/01/03 05:57:34;;;;;;;;;;;12.30;62.60;;;;;;5011413;28;20428;-88
2023/01/03 05:59:59;;;;;;;;;;;12.30;62.60;;;;;;5013323;28;19921;-89
2023/01/03 06:02:25;;;;;;;;;;;12.30;62.80;;;;;;5025990;28;19957;-89
2023/01/03 06:04:50;;;;;;;;;;;12.30;63.00;;;;;;5010680;28;19920;-89
2023/01/03 06:07:16;;;;;;;;;;;12.40;63.10;;;;;;5012131;28;20450;-88
2023/01/03 06:09:41;;;;;;;;;;;12.40;63.40;;;;;;5012414;28;20288;-90
2023/01/03 06:12:07;;;;;;;;;;;12.40;63.40;;;;;;5026106;28;19917;-89
2023/01/03 06:14:32;;;;;;;;;;;12.50;63.30;;;;;;5009956;28;19918;-91
2023/01/03 06:19:42;;;;;;;;;;;12.50;63.10;;;;;;5013455;28;19925;-89
2023/01/03 06:22:07;;;;;;;;;;;12.30;62.80;;;;;;5006673;28;19918;-89
2023/01/03 06:24:32;;;;;;;;;;;12.20;62.40;;;;;;4991296;28;19917;-89
2023/01/03 06:26:58;;;;;;;;;;;12.20;62.20;;;;;;4989847;28;19925;-89
2023/01/03 06:29:23;;;;;;;;;;;12.10;61.90;;;;;;4989618;28;19918;-90
2023/01/03 06:31:49;;;;;;;;;;;12.00;61.60;;;;;;5006535;28;20004;-90
2023/01/03 06:34:14;;;;;;;;;;;11.90;61.80;;;;;;5013250;28;19918;-89
2023/01/03 06:36:40;;;;;;;;;;;11.90;62.50;;;;;;5015193;28;19917;-90
2023/01/03 06:39:05;;;;;;;;;;;12.00;62.90;;;;;;5014526;28;19940;-89
2023/01/03 06:41:31;;;;;;;;;;;12.10;63.30;;;;;;5013441;28;19924;-88
2023/01/03 06:43:56;;;;;;;;;;;12.10;63.50;;;;;;4999539;28;19910;-89
2023/01/03 06:54:40;;;;;;;;;;;12.10;63.00;;;;;;5003314;28;19917;-88
2023/01/03 06:57:05;;;;;;;;;;;12.00;62.70;;;;;;4996989;28;19918;-88
2023/01/03 06:59:31;;;;;;;;;;;11.90;62.50;;;;;;5012914;28;19933;-89
2023/01/03 07:01:56;;;;;;;;;;;11.80;62.30;;;;;;5013302;28;20009;-89
2023/01/03 07:04:22;;;;;;;;;;;11.80;62.20;;;;;;5015037;28;19917;-88
2023/01/03 07:06:48;;;;;;;;;;;11.70;62.40;;;;;;5013720;28;20451;-90
2023/01/03 07:09:13;;;;;;;;;;;11.70;62.50;;;;;;5045375;28;20001;-89
2023/01/03 07:11:39;;;;;;;;;;;11.70;62.60;;;;;;5031077;28;19918;-89
2023/01/03 07:14:06;;;;;;;;;;;11.70;62.10;;;;;;5015342;28;19913;-89
2023/01/03 07:16:39;;;;;;;;;;;11.50;61.80;;;;;;5014311;28;19921;-88
2023/01/03 07:19:06;;;;;;;;;;;11.40;61.20;;;;;;5012761;28;19922;-89
2023/01/03 07:21:32;;;;;;;;;;;11.30;61.00;;;;;;5014539;28;19925;-90
2023/01/03 07:24:00;;;;;;;;;;;11.20;61.20;;;;;;5018810;28;19972;-88
2023/01/03 07:26:26;;;;;;;;;;;11.10;61.50;;;;;;5016074;28;20399;-89
2023/01/03 07:28:52;;;;;;;;;;;11.00;61.50;;;;;;5015960;28;19936;-87
2023/01/03 07:31:18;;;;;;;;;;;10.90;61.30;;;;;;5019933;28;19917;-88
2023/01/03 07:33:44;;;;;;;;;;;10.80;61.20;;;;;;5012808;28;19920;-89
2023/01/03 07:36:10;;;;;;;;;;;10.70;61.00;;;;;;5020302;28;19922;-90
2023/01/03 07:38:36;;;;;;;;;;;10.70;61.00;;;;;;5014271;28;19921;-89
2023/01/03 07:41:02;;;;;;;;;;;10.60;60.80;;;;;;5034779;28;19956;-88
2023/01/03 07:43:36;;;;;;;;;;;10.50;60.80;;;;;;5013588;28;19910;-89
2023/01/03 07:46:09;;;;;;;;;;;10.40;61.20;;;;;;5010846;28;19925;-89
2023/01/03 07:48:35;;;;;;;;;;;10.30;61.40;;;;;;5002655;28;20019;-89
2023/01/03 07:51:00;;;;;;;;;;;10.30;61.80;;;;;;5011485;28;19965;-90
2023/01/03 07:53:26;;;;;;;;;;;10.30;61.80;;;;;;5013345;28;19916;-89
2023/01/03 07:55:52;;;;;;;;;;;10.30;61.80;;;;;;5012474;28;19925;-89
2023/01/03 07:58:17;;;;;;;;;;;10.30;62.20;;;;;;5015178;28;20363;-88
2023/01/03 08:00:43;;;;;;;;;;;10.40;62.50;;;;;;5012611;28;19914;-88
2023/01/03 08:03:08;;;;;;;;;;;10.40;62.20;;;;;;5010643;28;19921;-89
2023/01/03 08:05:34;;;;;;;;;;;10.40;62.10;;;;;;5012160;28;19917;-89
2023/01/03 08:08:00;;;;;;;;;;;10.40;62.10;;;;;;5013490;28;19918;-89
2023/01/03 08:13:16;;;;;;;;;;;10.40;62.20;;;;;;5010915;28;19983;-88
2023/01/03 08:15:42;;;;;;;;;;;10.50;63.30;;;;;;5038961;28;19940;-89
2023/01/03 08:18:08;;;;;;;;;;;10.70;64.60;;;;;;5028218;28;19968;-90
2023/01/03 08:20:33;;;;;;;;;;;11.00;65.30;;;;;;5011604;28;19918;-89
2023/01/03 08:22:59;;;;;;;;;;;11.40;66.10;;;;;;5010790;28;19954;-88
2023/01/03 08:25:24;;;;;;;;;;;11.70;66.30;;;;;;5010530;28;20288;-89
2023/01/03 08:27:50;;;;;;;;;;;12.10;66.10;;;;;;5010293;28;19964;-89
2023/01/03 08:30:15;;;;;;;;;;;12.30;65.70;;;;;;5014917;28;19952;-88
2023/01/03 08:32:41;;;;;;;;;;;12.50;65.60;;;;;;5020645;28;20375;-89
2023/01/03 08:35:07;;;;;;;;;;;12.70;65.30;;;;;;5012783;28;20424;-89
2023/01/03 08:37:32;;;;;;;;;;;12.90;65.30;;;;;;5020693;28;19917;-89
2023/01/03 08:40:01;;;;;;;;;;;13.20;65.30;;;;;;5016453;28;20008;-91
2023/01/03 08:42:26;;;;;;;;;;;13.30;65.20;;;;;;5015632;28;19972;-89
2023/01/03 08:44:57;;;;;;;;;;;13.60;65.30;;;;;;5013091;28;20332;-88
2023/01/03 08:47:23;;;;;;;;;;;13.80;65.10;;;;;;5012489;28;19922;-89
2023/01/03 08:49:48;;;;;;;;;;;14.10;65.30;;;;;;5012079;28;19918;-89
2023/01/03 08:52:13;;;;;;;;;;;14.30;65.30;;;;;;5028303;28;19948;-90
2023/01/03 08:54:39;;;;;;;;;;;14.50;65.30;;;;;;5026801;28;20016;-90
2023/01/03 08:57:04;;;;;;;;;;;14.70;65.30;;;;;;5026075;28;19940;-89
2023/01/03 08:59:30;;;;;;;;;;;14.90;65.40;;;;;;5009004;28;19929;-90
2023/01/03 09:01:56;;;;;;;;;;;15.10;65.20;;;;;;5009075;28;20012;-89
2023/01/03 09:04:22;;;;;;;;;;;15.30;65.00;;;;;;5012009;28;19971;-90
2023/01/03 09:06:47;;;;;;;;;;;15.50;64.80;;;;;;5014605;28;19933;-87
2023/01/03 09:09:13;;;;;;;;;;;15.60;64.50;;;;;;5009375;28;19917;-89
2023/01/03 09:11:38;;;;;;;;;;;15.70;64.30;;;;;;5031065;28;19918;-90
2023/01/03 09:14:04;;;;;;;;;;;15.80;64.10;;;;;;5039568;28;19913;-87
2023/01/03 09:16:29;;;;;;;;;;;15.90;64.00;;;;;;5025460;28;20623;-89
2023/01/03 09:18:55;;;;;;;;;;;16.00;63.60;;;;;;5039231;28;19961;-88
2023/01/03 09:21:22;;;;;;;;;;;16.00;63.60;;;;;;5017732;28;20434;-88
2023/01/03 09:23:53;;;;;;;;;;;16.00;63.60;;;;;;5004710;28;20335;-89
2023/01/03 09:26:19;;;;;;;;;;;16.00;63.50;;;;;;5011538;28;19924;-88
2023/01/03 09:28:44;;;;;;;;;;;16.10;63.50;;;;;;5011573;28;19914;-89
2023/01/03 09:31:10;;;;;;;;;;;16.10;62.90;;;;;;5008699;28;19925;-89
2023/01/03 09:33:40;;;;;;;;;;;16.10;63.00;;;;;;5006035;28;19924;-89
2023/01/03 09:36:05;;;;;;;;;;;16.00;62.90;;;;;;5018904;28;19928;-89
2023/01/03 09:38:31;;;;;;;;;;;16.10;63.30;;;;;;5005847;28;19930;-91
2023/01/03 09:41:04;;;;;;;;;;;16.10;63.10;;;;;;5020133;28;19921;-89
2023/01/03 09:43:49;;;;;;;;;;;16.10;63.50;;;;;;5006077;28;19928;-89
2023/01/03 09:46:28;;;;;;;;;;;16.10;63.30;;;;;;5006898;28;20021;-90
2023/01/03 09:48:54;;;;;;;;;;;16.10;63.40;;;;;;5003911;28;20312;-89
2023/01/03 10:05:52;;;;;;;;;;;16.40;62.90;;;;;;4992695;28;19921;-89
2023/01/03 10:08:26;;;;;;;;;;;16.50;62.90;;;;;;5004791;28;20246;-89
2023/01/03 10:11:06;;;;;;;;;;;16.70;63.00;;;;;;5005662;28;19921;-87
2023/01/03 10:13:50;;;;;;;;;;;16.70;62.90;;;;;;5001747;28;19918;-88
2023/01/03 10:16:23;;;;;;;;;;;16.90;63.00;;;;;;5005956;28;19922;-88
2023/01/03 10:18:58;;;;;;;;;;;17.00;63.10;;;;;;5008912;28;20411;-89
2023/01/03 10:21:26;;;;;;;;;;;17.20;63.30;;;;;;5017499;28;19948;-89
2023/01/03 10:23:52;;;;;;;;;;;17.40;63.50;;;;;;5007271;28;19918;-89
2023/01/03 10:26:18;;;;;;;;;;;17.50;63.00;;;;;;5004242;28;19948;-89
2023/01/03 10:28:44;;;;;;;;;;;17.60;62.30;;;;;;5022166;28;20291;-88
2023/01/03 10:31:26;;;;;;;;;;;17.70;62.20;;;;;;5005300;28;19922;-90
2023/01/03 10:33:52;;;;;;;;;;;17.70;61.90;;;;;;5001684;28;20044;-90
2023/01/03 10:36:19;;;;;;;;;;;17.80;62.50;;;;;;5004006;28;19922;-90
2023/01/03 10:38:45;;;;;;;;;;;18.00;62.30;;;;;;5021781;28;20300;-89
2023/01/03 10:41:34;;;;;;;;;;;18.10;62.50;;;;;;5006170;28;20391;-89
2023/01/03 10:44:01;;;;;;;;;;;18.20;62.50;;;;;;4991189;28;19952;-89
2023/01/03 10:46:26;;;;;;;;;;;18.30;62.20;;;;;;5015049;28;19921;-89
2023/01/03 10:48:53;;;;;;;;;;;18.50;62.40;;;;;;5006612;28;19918;-89
2023/01/03 10:51:22;;;;;;;;;;;18.60;61.40;;;;;;5002310;28;19922;-89
2023/01/03 10:53:48;;;;;;;;;;;18.50;61.00;;;;;;5006838;28;19944;-88
2023/01/03 10:56:14;;;;;;;;;;;18.60;61.60;;;;;;5007345;28;20316;-88
2023/01/03 10:58:40;;;;;;;;;;;18.70;61.90;;;;;;5006661;28;19932;-88
2023/01/03 11:01:15;;;;;;;;;;;18.90;62.20;;;;;;5007074;28;19921;-89
2023/01/03 11:03:43;;;;;;;;;;;19.00;61.80;;;;;;5019474;28;20284;-90
2023/01/03 11:06:13;;;;;;;;;;;19.00;61.00;;;;;;5005827;28;19991;-89
2023/01/03 11:08:43;;;;;;;;;;;19.00;60.60;;;;;;5005275;28;19964;-89
2023/01/03 11:11:25;;;;;;;;;;;19.00;60.40;;;;;;5007848;28;19921;-90
2023/01/03 11:13:50;;;;;;;;;;;19.00;60.70;;;;;;5005120;28;19921;-88
2023/01/03 11:16:17;;;;;;;;;;;19.00;60.40;;;;;;5006740;28;19926;-89
2023/01/03 11:18:43;;;;;;;;;;;19.10;60.60;;;;;;5006538;28;20240;-89
2023/01/03 11:21:08;;;;;;;;;;;18.90;59.70;;;;;;5007770;28;19921;-89
2023/01/03 11:23:52;;;;;;;;;;;18.70;59.50;;;;;;5022502;28;19918;-90
2023/01/03 11:26:18;;;;;;;;;;;18.30;59.50;;;;;;5008326;28;20372;-88
2023/01/03 11:28:49;;;;;;;;;;;17.90;59.80;;;;;;5007423;28;19928;-87
2023/01/03 11:31:22;;;;;;;;;;;17.70;60.90;;;;;;5005858;28;19917;-90
2023/01/03 11:33:57;;;;;;;;;;;17.50;61.10;;;;;;5022586;28;19923;-89
2023/01/03 11:36:25;;;;;;;;;;;17.50;61.80;;;;;;5015494;28;20008;-87
2023/01/03 11:38:55;;;;;;;;;;;17.40;61.80;;;;;;5011614;28;19921;-88
2023/01/03 11:41:34;;;;;;;;;;;17.20;61.60;;;;;;5009734;28;20659;-88
2023/01/03 11:43:59;;;;;;;;;;;17.00;61.50;;;;;;5008239;28;20361;-88
2023/01/03 11:46:36;;;;;;;;;;;16.90;62.00;;;;;;5006276;28;20376;-87
2023/01/03 11:49:21;;;;;;;;;;;16.70;62.00;;;;;;5011361;28;20003;-89
2023/01/03 11:51:56;;;;;;;;;;;16.50;61.80;;;;;;5005064;28;20391;-89
2023/01/03 11:54:41;;;;;;;;;;;16.30;62.30;;;;;;5003805;28;19925;-87
2023/01/03 11:57:15;;;;;;;;;;;16.20;62.50;;;;;;5008608;28;19928;-89
2023/01/03 11:59:48;;;;;;;;;;;16.00;63.10;;;;;;5010407;28;19944;-87
2023/01/03 12:02:52;;;;;;;;;;;16.00;63.20;;;;;;5007595;28;19932;-86
2023/01/03 12:05:39;;;;;;;;;;;16.00;63.50;;;;;;4951633;28;19918;-89
2023/01/03 12:08:18;;;;;;;;;;;16.00;63.90;;;;;;4966970;28;19937;-89
2023/01/03 12:10:47;;;;;;;;;;;16.10;64.20;;;;;;4996033;28;19917;-90
2023/01/03 12:13:36;;;;;;;;;;;16.20;64.00;;;;;;5006968;28;19960;-87
2023/01/03 12:16:01;;;;;;;;;;;16.20;64.20;;;;;;5010088;28;20382;-88
2023/01/03 12:18:51;;;;;;;;;;;16.30;64.20;;;;;;5010075;28;19926;-87
2023/01/03 12:21:25;;;;;;;;;;;16.30;63.50;;;;;;5009839;28;19956;-88
2023/01/03 12:23:50;;;;;;;;;;;16.30;63.20;;;;;;5025039;28;19976;-89
2023/01/03 12:26:16;;;;;;;;;;;16.40;63.80;;;;;;5008123;28;20336;-88
2023/01/03 12:28:42;;;;;;;;;;;16.30;63.20;;;;;;5009259;28;19996;-87
2023/01/03 12:31:18;;;;;;;;;;;16.40;63.70;;;;;;5008688;28;19922;-87
2023/01/03 12:33:49;;;;;;;;;;;16.30;63.10;;;;;;5007496;28;19913;-88
2023/01/03 12:36:30;;;;;;;;;;;16.30;63.00;;;;;;5009342;28;20470;-89
2023/01/03 12:38:55;;;;;;;;;;;16.30;63.30;;;;;;5004976;28;20049;-88
2023/01/03 12:41:37;;;;;;;;;;;16.30;63.60;;;;;;4989868;28;20013;-89
2023/01/03 12:44:09;;;;;;;;;;;16.40;63.50;;;;;;5006384;28;20344;-89
2023/01/03 12:46:37;;;;;;;;;;;16.40;63.40;;;;;;5022352;28;19918;-89
2023/01/03 12:49:21;;;;;;;;;;;16.30;63.10;;;;;;5010423;28;19928;-89
2023/01/03 12:51:47;;;;;;;;;;;16.30;63.00;;;;;;4997688;28;19953;-87
2023/01/03 12:54:32;;;;;;;;;;;16.30;62.60;;;;;;5009556;28;19952;-90
2023/01/03 12:57:07;;;;;;;;;;;16.20;63.00;;;;;;5006823;28;20397;-91
2023/01/03 12:59:38;;;;;;;;;;;16.20;63.20;;;;;;5000924;28;19930;-87
2023/01/03 13:02:14;;;;;;;;;;;16.30;62.80;;;;;;5004043;28;22706;-90
2023/01/03 13:04:41;;;;;;;;;;;16.20;62.90;;;;;;5006702;28;20561;-89
2023/01/03 13:07:21;;;;;;;;;;;16.30;63.50;;;;;;5006269;28;19932;-89
2023/01/03 13:09:55;;;;;;;;;;;16.30;63.30;;;;;;5024703;28;19924;-89
2023/01/03 13:12:23;;;;;;;;;;;16.30;63.10;;;;;;5004181;28;20422;-88
2023/01/03 13:14:53;;;;;;;;;;;16.30;63.30;;;;;;5006474;28;19922;-88
2023/01/03 13:17:19;;;;;;;;;;;16.30;62.90;;;;;;5002210;28;19948;-87
2023/01/03 13:19:52;;;;;;;;;;;16.30;63.20;;;;;;5008784;28;19926;-88
2023/01/03 13:22:20;;;;;;;;;;;16.30;63.40;;;;;;5004624;28;19921;-88
2023/01/03 13:24:52;;;;;;;;;;;16.30;63.30;;;;;;5007244;28;19921;-88
2023/01/03 13:27:21;;;;;;;;;;;16.30;63.50;;;;;;5005054;28;19922;-87
2023/01/03 13:29:49;;;;;;;;;;;16.40;63.30;;;;;;5010253;28;20380;-87
2023/01/03 13:32:15;;;;;;;;;;;16.30;62.90;;;;;;5003884;28;19921;-88
2023/01/03 13:34:40;;;;;;;;;;;16.30;62.60;;;;;;5005769;28;20662;-89
2023/01/03 13:37:06;;;;;;;;;;;16.30;62.70;;;;;;5007532;28;19932;-89
2023/01/03 13:39:36;;;;;;;;;;;16.30;62.80;;;;;;5005149;28;20005;-87
2023/01/03 13:42:25;;;;;;;;;;;16.30;62.90;;;;;;5012053;28;19925;-89
2023/01/03 13:44:53;;;;;;;;;;;16.30;62.70;;;;;;4999562;28;19974;-88
2023/01/03 13:47:23;;;;;;;;;;;16.30;62.50;;;;;;5021226;28;20025;-90
2023/01/03 13:49:48;;;;;;;;;;;16.30;62.70;;;;;;5005199;28;20253;-88
2023/01/03 13:52:34;;;;;;;;;;;16.30;63.10;;;;;;5016788;28;20020;-87
2023/01/03 13:54:59;;;;;;;;;;;16.30;62.80;;;;;;5006122;28;19918;-90
2023/01/03 13:57:29;;;;;;;;;;;16.30;62.50;;;;;;5006222;28;19921;-87
2023/01/03 13:59:56;;;;;;;;;;;16.30;62.80;;;;;;5022104;28;19975;-89
2023/01/03 14:02:47;;;;;;;;;;;16.30;62.70;;;;;;5016010;28;19932;-88
2023/01/03 14:05:28;;;;;;;;;;;16.20;62.70;;;;;;5003339;28;19922;-89
2023/01/03 14:08:05;;;;;;;;;;;16.30;62.70;;;;;;5005543;28;20743;-88
2023/01/03 14:10:34;;;;;;;;;;;16.30;62.90;;;;;;5008246;28;19917;-87
2023/01/03 14:13:07;;;;;;;;;;;16.30;62.80;;;;;;5001514;28;19944;-89
2023/01/03 14:15:33;;;;;;;;;;;16.30;62.50;;;;;;5007236;28;19917;-88
2023/01/03 14:18:11;;;;;;;;;;;16.20;62.70;;;;;;5004337;28;19921;-88
2023/01/03 14:20:38;;;;;;;;;;;16.20;63.00;;;;;;5005789;28;19921;-88
2023/01/03 14:23:07;;;;;;;;;;;16.20;63.10;;;;;;5017154;28;19921;-89
2023/01/03 14:25:32;;;;;;;;;;;16.20;62.90;;;;;;5004551;28;20284;-87
2023/01/03 14:28:03;;;;;;;;;;;16.20;63.00;;;;;;5003420;28;19922;-86
2023/01/03 14:30:30;;;;;;;;;;;16.20;62.80;;;;;;5022074;28;19967;-88
2023/01/03 14:32:56;;;;;;;;;;;16.20;62.90;;;;;;5015467;28;20653;-88
2023/01/03 14:35:30;;;;;;;;;;;16.20;62.80;;;;;;5022005;28;19925;-87
2023/01/03 14:37:55;;;;;;;;;;;16.20;62.50;;;;;;5005630;28;19976;-87
2023/01/03 14:40:24;;;;;;;;;;;16.00;62.30;;;;;;5002969;28;20404;-89
2023/01/03 14:42:49;;;;;;;;;;;15.90;61.60;;;;;;4996586;28;20373;-88
2023/01/03 14:45:16;;;;;;;;;;;15.80;61.60;;;;;;5021128;28;20479;-88
2023/01/03 14:47:42;;;;;;;;;;;15.70;61.50;;;;;;5005195;28;19917;-89
2023/01/03 14:50:18;;;;;;;;;;;15.60;61.50;;;;;;5004775;28;20031;-88
2023/01/03 14:52:45;;;;;;;;;;;15.50;61.60;;;;;;5002265;28;20415;-88
2023/01/03 14:55:15;;;;;;;;;;;15.40;61.80;;;;;;5006529;28;19917;-88
2023/01/03 14:57:41;;;;;;;;;;;15.30;61.90;;;;;;5009756;28;19921;-88
2023/01/03 15:00:13;;;;;;;;;;;15.20;61.40;;;;;;5023617;28;20445;-88
2023/01/03 15:02:39;;;;;;;;;;;15.20;61.30;;;;;;5008095;28;19921;-88
2023/01/03 15:05:20;;;;;;;;;;;15.10;62.00;;;;;;5010330;28;20604;-87
2023/01/03 15:07:45;;;;;;;;;;;15.00;62.00;;;;;;5023912;28;20017;-87
2023/01/03 15:10:11;;;;;;;;;;;15.00;62.30;;;;;;5026170;28;19918;-89
2023/01/03 15:12:43;;;;;;;;;;;14.90;62.40;;;;;;5005925;28;20013;-89
2023/01/03 15:15:15;;;;;;;;;;;14.90;62.20;;;;;;5003916;28;19917;-88
2023/01/03 15:17:41;;;;;;;;;;;14.80;61.70;;;;;;5007866;28;19929;-87
2023/01/03 15:20:10;;;;;;;;;;;14.70;61.80;;;;;;5006624;28;19925;-86
2023/01/03 15:22:39;;;;;;;;;;;14.70;62.00;;;;;;5005835;28;19922;-87
2023/01/03 15:25:10;;;;;;;;;;;14.60;61.70;;;;;;5008258;28;19917;-89
2023/01/03 15:27:35;;;;;;;;;;;14.60;61.80;;;;;;5008127;28;20391;-86
2023/01/03 15:30:18;;;;;;;;;;;14.60;62.20;;;;;;5007682;28;19960;-88
2023/01/03 15:33:17;;;;;;;;;;;14.70;62.70;;;;;;5004784;28;19968;-86